Time;durP1;ratioP1;P1;durP2;ratioP2;P2;SDS_P1;SDS_P2;PMS_P1;PMS_P2;Temp;Humidity;BMP_temperature;BMP_pressure;BME280_temperature;BME280_humidity;BME280_pressure;Samples;Min_cycle;Max_cycle;Signal;HPM_P1;HPM_P2
2024/02/24 13:03:35;;;;;;;1.08;0.50;;;8.90;99.90;;;;;;5051275;22;20108;-86
2024/02/24 13:06:01;;;;;;;2.75;0.80;;;8.90;99.90;;;;;;5023721;28;20044;-85
2024/02/24 13:08:27;;;;;;;3.17;0.77;;;8.90;99.90;;;;;;5036948;28;20723;-86
2024/02/24 13:10:52;;;;;;;3.63;1.20;;;8.90;99.90;;;;;;5024407;28;20045;-89
2024/02/24 13:13:18;;;;;;;5.82;1.00;;;9.90;99.90;;;;;;5025431;28;20071;-87
2024/02/24 13:15:44;;;;;;;5.15;1.20;;;8.90;99.90;;;;;;5044788;28;20033;-86
2024/02/24 13:18:10;;;;;;;4.53;0.85;;;8.90;99.90;;;;;;5011874;28;20041;-85
2024/02/24 13:20:50;;;;;;;4.20;1.00;;;8.90;99.90;;;;;;5041600;28;20064;-87
2024/02/24 13:23:16;;;;;;;6.40;1.67;;;10.20;99.90;;;;;;5025085;28;20843;-85
2024/02/24 13:25:42;;;;;;;6.07;0.73;;;8.60;99.90;;;;;;5040171;28;20025;-86
2024/02/24 13:28:08;;;;;;;3.17;0.75;;;8.80;99.90;;;;;;5024182;28;20094;-86
2024/02/24 13:30:34;;;;;;;4.43;1.30;;;11.00;99.90;;;;;;5023868;28;20034;-85
2024/02/24 13:33:01;;;;;;;3.88;1.50;;;9.50;99.90;;;;;;5034791;28;20034;-85
2024/02/24 13:35:27;;;;;;;2.22;0.90;;;10.80;99.90;;;;;;5026855;28;20055;-87
2024/02/24 13:37:52;;;;;;;4.65;1.30;;;8.80;99.90;;;;;;5026241;28;20025;-86
2024/02/24 13:40:21;;;;;;;3.70;1.35;;;8.90;99.90;;;;;;5042160;28;20042;-85
2024/02/24 13:42:47;;;;;;;4.18;1.40;;;9.90;99.90;;;;;;5026443;28;20034;-86
2024/02/24 13:45:12;;;;;;;5.57;1.30;;;10.10;99.90;;;;;;5041895;28;20024;-83
2024/02/24 13:47:38;;;;;;;3.38;0.77;;;9.00;99.90;;;;;;5007728;28;20107;-88
2024/02/24 13:50:05;;;;;;;2.10;0.73;;;10.70;99.90;;;;;;5025127;28;20415;-86
2024/02/24 13:52:31;;;;;;;6.03;1.40;;;9.20;99.90;;;;;;5023264;28;20028;-83
2024/02/24 13:54:56;;;;;;;4.45;0.98;;;9.90;99.90;;;;;;5027434;28;20029;-84
2024/02/24 13:57:22;;;;;;;3.95;1.23;;;10.90;99.90;;;;;;5018301;28;20029;-84
2024/02/24 13:59:49;;;;;;;4.22;1.45;;;9.10;99.90;;;;;;5021079;28;20049;-88
2024/02/24 14:02:15;;;;;;;2.60;0.80;;;9.10;99.90;;;;;;5026289;28;20030;-85
2024/02/24 14:04:40;;;;;;;2.03;0.82;;;11.00;99.90;;;;;;5042415;28;20033;-83
2024/02/24 14:07:06;;;;;;;2.85;0.60;;;9.70;99.90;;;;;;5023748;28;20054;-85
2024/02/24 14:09:34;;;;;;;1.70;0.65;;;10.20;99.90;;;;;;5023493;28;20124;-88
2024/02/24 14:12:04;;;;;;;3.00;0.90;;;10.50;99.90;;;;;;5027502;28;23219;-88
2024/02/24 14:14:29;;;;;;;5.03;1.42;;;9.30;99.90;;;;;;5015800;28;20026;-86
2024/02/24 14:16:55;;;;;;;2.45;1.02;;;10.00;99.90;;;;;;5027110;28;20033;-86
2024/02/24 14:19:20;;;;;;;4.72;1.27;;;11.00;99.90;;;;;;5026995;28;20009;-85
2024/02/24 14:21:46;;;;;;;4.45;1.30;;;8.80;99.90;;;;;;5026065;28;20032;-86
2024/02/24 14:24:12;;;;;;;5.47;1.40;;;9.20;99.90;;;;;;5046177;28;20022;-85
2024/02/24 14:26:37;;;;;;;4.68;1.40;;;9.10;99.90;;;;;;5030405;28;20022;-85
2024/02/24 14:29:06;;;;;;;1.50;0.80;;;10.00;99.90;;;;;;5030807;28;20075;-87
2024/02/24 14:31:32;;;;;;;2.85;0.82;;;9.00;99.90;;;;;;5028589;28;20029;-87
2024/02/24 14:33:58;;;;;;;2.20;0.80;;;9.00;99.90;;;;;;5024469;28;20048;-86
2024/02/24 14:36:26;;;;;;;2.25;0.95;;;8.70;99.90;;;;;;5048500;28;20025;-87
2024/02/24 14:38:52;;;;;;;2.63;0.80;;;8.60;99.90;;;;;;5026433;28;20025;-84
2024/02/24 14:41:18;;;;;;;2.75;0.80;;;;;;;;;;5026098;28;20101;-84
2024/02/24 14:43:44;;;;;;;2.70;0.60;;;8.20;99.90;;;;;;5045171;28;20096;-87
2024/02/24 14:46:10;;;;;;;3.15;0.60;;;8.10;99.90;;;;;;5027157;28;20026;-87
2024/02/24 14:48:38;;;;;;;0.73;0.40;;;8.00;99.90;;;;;;5027284;28;20068;-87
2024/02/24 14:51:04;;;;;;;0.57;0.35;;;9.50;99.90;;;;;;5031642;28;20025;-85
2024/02/24 14:53:30;;;;;;;1.60;0.60;;;7.90;99.90;;;;;;5042543;28;20026;-87
2024/02/24 14:55:56;;;;;;;0.60;0.35;;;7.30;99.90;;;;;;5027646;28;20022;-89
2024/02/24 14:58:22;;;;;;;0.82;0.50;;;7.90;99.90;;;;;;5028309;28;20044;-87
2024/02/24 15:00:48;;;;;;;2.95;1.23;;;7.80;99.90;;;;;;5005359;28;20056;-87
2024/02/24 15:03:28;;;;;;;3.22;0.70;;;9.30;99.90;;;;;;5026668;28;20064;-87
2024/02/24 15:05:54;;;;;;;3.08;0.73;;;7.90;99.90;;;;;;5029506;28;20068;-86
2024/02/24 15:08:19;;;;;;;1.35;0.70;;;7.90;99.90;;;;;;5025990;28;20038;-87
2024/02/24 15:10:45;;;;;;;2.45;0.50;;;7.90;99.90;;;;;;5023923;28;20034;-88
2024/02/24 15:13:15;;;;;;;1.02;0.50;;;9.10;99.90;;;;;;5022137;28;20102;-86
2024/02/24 15:15:42;;;;;;;0.87;0.50;;;8.20;99.90;;;;;;5036552;28;20034;-85
2024/02/24 15:18:13;;;;;;;1.58;0.50;;;8.10;99.90;;;;;;5014504;28;20388;-83
2024/02/24 15:20:39;;;;;;;1.92;0.80;;;10.50;99.90;;;;;;5035987;28;20034;-85
2024/02/24 15:23:06;;;;;;;1.80;0.60;;;8.00;99.90;;;;;;5018588;28;20056;-88
2024/02/24 15:25:32;;;;;;;1.80;0.60;;;10.70;99.90;;;;;;5039802;28;20026;-85
2024/02/24 15:27:58;;;;;;;0.85;0.50;;;8.20;99.90;;;;;;5017780;28;20040;-85
2024/02/24 15:30:24;;;;;;;2.17;0.82;;;8.20;99.90;;;;;;5005567;28;20041;-87
2024/02/24 15:32:54;;;;;;;0.82;0.60;;;8.10;99.90;;;;;;5038269;28;20060;-90
2024/02/24 15:35:20;;;;;;;0.45;0.40;;;10.70;99.90;;;;;;5020979;28;20029;-86
2024/02/24 15:37:46;;;;;;;4.03;0.80;;;8.90;99.90;;;;;;5025876;28;20052;-86
2024/02/24 15:40:12;;;;;;;2.25;0.88;;;8.70;99.90;;;;;;5043768;28;20010;-87
2024/02/24 15:42:38;;;;;;;1.00;0.50;;;;;;;;;;5023266;28;20042;-88
2024/02/24 15:45:10;;;;;;;1.45;0.60;;;8.10;99.90;;;;;;5025132;28;20248;-85
2024/02/24 15:47:38;;;;;;;1.25;0.52;;;8.10;99.90;;;;;;5027580;28;20029;-88
2024/02/24 15:50:05;;;;;;;1.13;0.55;;;8.80;99.90;;;;;;5026772;28;20029;-87
2024/02/24 15:52:34;;;;;;;2.00;0.57;;;8.10;99.90;;;;;;5031123;28;20021;-86
2024/02/24 15:54:59;;;;;;;1.20;0.57;;;10.40;99.90;;;;;;5027575;28;20061;-86
2024/02/24 15:57:25;;;;;;;0.80;0.50;;;9.30;99.90;;;;;;5050593;28;20025;-87
2024/02/24 15:59:51;;;;;;;1.35;0.60;;;9.50;99.90;;;;;;5047156;28;20051;-88
2024/02/24 16:02:16;;;;;;;0.70;0.40;;;6.10;99.90;;;;;;5031870;28;20012;-87
2024/02/24 16:04:42;;;;;;;1.48;0.77;;;6.80;99.90;;;;;;5048371;28;20021;-88
2024/02/24 16:07:08;;;;;;;0.93;0.50;;;7.60;99.90;;;;;;5026248;28;20034;-87
2024/02/24 16:09:35;;;;;;;1.52;0.60;;;8.80;99.90;;;;;;5023235;28;20047;-86
2024/02/24 16:12:04;;;;;;;1.35;0.65;;;9.70;99.90;;;;;;5042665;28;20033;-85
2024/02/24 16:14:30;;;;;;;0.80;0.60;;;7.50;99.90;;;;;;5022837;28;20105;-86
2024/02/24 16:16:56;;;;;;;1.58;0.95;;;;;;;;;;5015557;28;20033;-85
2024/02/24 16:19:21;;;;;;;5.45;1.17;;;7.90;99.90;;;;;;5025320;28;20033;-87
2024/02/24 16:21:47;;;;;;;2.40;1.20;;;9.00;99.90;;;;;;5042309;28;20105;-86
2024/02/24 16:24:13;;;;;;;1.88;0.68;;;10.20;99.90;;;;;;5022003;28;20029;-88
2024/02/24 16:26:38;;;;;;;1.30;0.60;;;8.10;99.90;;;;;;5023725;28;20017;-87
2024/02/24 16:29:04;;;;;;;2.92;0.90;;;8.10;99.90;;;;;;5043098;28;20285;-83
2024/02/24 16:31:30;;;;;;;1.60;0.70;;;8.00;99.90;;;;;;5025537;28;20053;-88
2024/02/24 16:33:55;;;;;;;3.50;0.70;;;8.00;99.90;;;;;;5026143;28;20044;-88
2024/02/24 16:36:23;;;;;;;1.85;0.70;;;9.10;99.90;;;;;;5025251;28;20102;-88
2024/02/24 16:38:52;;;;;;;2.35;1.02;;;7.80;99.90;;;;;;5048045;28;20022;-85
2024/02/24 16:41:18;;;;;;;2.97;1.20;;;9.60;99.90;;;;;;5028631;28;20052;-85
2024/02/24 16:43:43;;;;;;;5.63;1.80;;;9.10;99.90;;;;;;5029183;28;20013;-85
2024/02/24 16:46:09;;;;;;;3.22;1.30;;;7.70;99.90;;;;;;5026602;28;20030;-87
2024/02/24 16:48:35;;;;;;;2.45;0.90;;;7.60;99.90;;;;;;5024414;28;20036;-87
2024/02/24 16:51:00;;;;;;;1.75;0.88;;;8.10;99.90;;;;;;5027630;28;20014;-85
2024/02/24 16:53:26;;;;;;;1.90;1.05;;;8.10;99.90;;;;;;5019619;28;20040;-85
2024/02/24 16:55:51;;;;;;;3.17;1.42;;;7.50;99.90;;;;;;5036527;28;20018;-85
2024/02/24 16:58:17;;;;;;;3.42;1.90;;;7.50;99.90;;;;;;5019020;28;20041;-85
2024/02/24 17:00:44;;;;;;;5.22;2.85;;;7.80;99.90;;;;;;5021354;28;20030;-88
2024/02/24 17:03:09;;;;;;;3.08;1.30;;;8.10;99.90;;;;;;5038096;28;20037;-85
2024/02/24 17:05:37;;;;;;;5.03;1.40;;;9.60;99.90;;;;;;5023478;28;20089;-88
2024/02/24 17:08:03;;;;;;;2.30;0.98;;;7.40;99.90;;;;;;5037118;28;20033;-84
2024/02/24 17:10:30;;;;;;;2.50;0.90;;;7.30;99.90;;;;;;5005234;28;20025;-85
2024/02/24 17:12:59;;;;;;;3.25;1.40;;;7.40;99.90;;;;;;5021628;28;20021;-85
2024/02/24 17:15:25;;;;;;;2.10;1.10;;;9.50;99.90;;;;;;5020094;28;20040;-86
2024/02/24 17:17:51;;;;;;;1.85;0.90;;;9.90;99.90;;;;;;5037646;28;21482;-88
2024/02/24 17:20:16;;;;;;;4.53;0.90;;;9.30;99.90;;;;;;5021926;28;20033;-86
2024/02/24 17:22:42;;;;;;;2.42;1.02;;;7.30;99.90;;;;;;5026675;28;20014;-89
2024/02/24 17:25:08;;;;;;;1.27;0.88;;;8.60;99.90;;;;;;5023498;28;20018;-88
2024/02/24 17:27:33;;;;;;;4.07;1.48;;;7.10;99.90;;;;;;5027811;28;20040;-89
2024/02/24 17:29:59;;;;;;;2.53;1.27;;;7.10;99.90;;;;;;5027663;28;20014;-87
2024/02/24 17:32:25;;;;;;;2.80;1.25;;;8.80;99.90;;;;;;5029761;28;20113;-88
2024/02/24 17:34:50;;;;;;;2.90;1.23;;;7.10;99.90;;;;;;5026354;28;20020;-87
2024/02/24 17:37:16;;;;;;;4.65;1.35;;;8.00;99.90;;;;;;5044421;28;20022;-88
2024/02/24 17:39:42;;;;;;;4.22;1.80;;;9.30;99.90;;;;;;5029637;28;20038;-89
2024/02/24 17:42:07;;;;;;;5.47;3.00;;;7.70;99.90;;;;;;5047673;28;20036;-86
2024/02/24 17:44:33;;;;;;;5.88;2.60;;;8.10;99.90;;;;;;5045324;28;20034;-88
2024/02/24 17:47:05;;;;;;;5.05;2.53;;;7.60;99.90;;;;;;5031052;28;20022;-87
2024/02/24 17:49:30;;;;;;;3.00;1.67;;;7.00;99.90;;;;;;5049574;28;20025;-89
2024/02/24 17:51:57;;;;;;;4.03;1.48;;;5.70;99.90;;;;;;5035154;28;20045;-88
2024/02/24 17:54:23;;;;;;;4.22;2.10;;;8.40;99.90;;;;;;5035344;28;20013;-85
2024/02/24 17:56:49;;;;;;;3.97;1.85;;;6.90;99.90;;;;;;5033303;28;20089;-87
2024/02/24 17:59:14;;;;;;;7.95;3.80;;;7.30;99.90;;;;;;5048263;28;20068;-87
2024/02/24 18:01:40;;;;;;;5.70;3.10;;;8.20;99.90;;;;;;5032982;28;20027;-86
2024/02/24 18:04:44;;;;;;;4.68;2.60;;;9.30;99.90;;;;;;5032416;28;20048;-87
2024/02/24 18:10:39;;;;;;;4.75;2.20;;;8.10;99.90;;;;;;4934124;28;20028;-86
2024/02/24 18:13:08;;;;;;;5.30;1.90;;;8.30;99.90;;;;;;4914885;28;20043;-87
2024/02/24 18:15:34;;;;;;;5.22;2.03;;;8.10;99.90;;;;;;4964483;28;20045;-88
2024/02/24 18:17:59;;;;;;;5.25;2.17;;;8.70;99.90;;;;;;4994528;28;20054;-89
2024/02/24 18:20:25;;;;;;;4.22;1.98;;;6.70;99.90;;;;;;5002072;28;20470;-86
2024/02/24 18:22:50;;;;;;;6.68;2.17;;;8.80;99.90;;;;;;5045906;28;20036;-88
2024/02/24 18:25:16;;;;;;;5.20;2.20;;;7.40;99.90;;;;;;5035588;28;20029;-89
2024/02/24 18:27:42;;;;;;;4.22;2.00;;;6.50;99.90;;;;;;5031742;28;20037;-89
2024/02/24 18:30:08;;;;;;;5.85;2.47;;;6.50;99.90;;;;;;5030559;28;20010;-87
2024/02/24 18:32:33;;;;;;;5.80;2.38;;;6.50;99.90;;;;;;5051735;28;20031;-87
2024/02/24 18:34:59;;;;;;;7.55;3.05;;;6.80;99.90;;;;;;5046120;28;20022;-85
2024/02/24 18:37:25;;;;;;;5.40;2.88;;;6.40;99.90;;;;;;5031297;28;20096;-89
2024/02/24 18:39:51;;;;;;;9.40;3.20;;;6.50;99.90;;;;;;5048284;28;20036;-87
2024/02/24 18:42:20;;;;;;;4.60;2.50;;;6.40;99.90;;;;;;5050396;28;20013;-87
2024/02/24 18:44:46;;;;;;;6.47;3.08;;;6.30;99.90;;;;;;5030076;28;20041;-88
2024/02/24 18:47:12;;;;;;;6.10;3.38;;;6.80;99.90;;;;;;5044433;28;20025;-87
2024/02/24 18:49:38;;;;;;;8.05;3.30;;;8.40;99.90;;;;;;5029799;28;20036;-89
2024/02/24 18:52:05;;;;;;;8.90;3.60;;;7.90;99.90;;;;;;5031847;28;20034;-87
2024/02/24 18:54:33;;;;;;;4.88;2.95;;;6.00;99.90;;;;;;5030097;28;20005;-88
2024/02/24 18:57:01;;;;;;;5.60;3.60;;;6.40;99.90;;;;;;5042672;28;20022;-88
2024/02/24 18:59:26;;;;;;;7.50;4.10;;;6.00;99.90;;;;;;5046067;28;20093;-89
2024/02/24 19:01:54;;;;;;;8.20;3.88;;;5.80;99.90;;;;;;5030471;28;20044;-87
2024/02/24 19:04:23;;;;;;;11.80;4.65;;;8.40;99.90;;;;;;5029571;28;20045;-87
2024/02/24 19:06:49;;;;;;;13.60;3.90;;;6.70;99.90;;;;;;5028609;28;20021;-85
2024/02/24 19:09:15;;;;;;;11.00;5.20;;;8.10;99.90;;;;;;5030796;28;20029;-89
2024/02/24 19:11:45;;;;;;;9.65;4.13;;;6.60;99.90;;;;;;5031601;28;20014;-89
2024/02/24 19:14:13;;;;;;;9.10;4.38;;;5.70;99.90;;;;;;5044405;28;20030;-88
2024/02/24 19:16:41;;;;;;;8.45;4.13;;;6.00;99.90;;;;;;5029707;28;20030;-90
2024/02/24 19:19:07;;;;;;;9.07;4.22;;;7.60;99.90;;;;;;5030657;28;20026;-88
2024/02/24 19:21:33;;;;;;;6.88;3.50;;;5.60;99.90;;;;;;5029673;28;20041;-90
2024/02/24 19:24:01;;;;;;;8.43;3.95;;;5.60;99.90;;;;;;5042232;28;20028;-90
2024/02/24 19:26:27;;;;;;;7.18;3.83;;;5.70;99.90;;;;;;5045062;28;20021;-89
2024/02/24 19:28:53;;;;;;;7.60;3.58;;;7.10;99.90;;;;;;5050882;28;20032;-90
2024/02/24 19:31:20;;;;;;;8.18;4.60;;;4.90;99.90;;;;;;5014282;28;20033;-89
2024/02/24 19:33:48;;;;;;;7.72;3.70;;;5.60;99.90;;;;;;5048907;28;20097;-90
2024/02/24 19:36:14;;;;;;;9.15;3.72;;;5.60;99.90;;;;;;5014008;28;20021;-89
2024/02/24 19:38:42;;;;;;;7.47;4.03;;;5.20;99.90;;;;;;5026323;28;20051;-88
2024/02/24 19:41:10;;;;;;;8.15;3.58;;;7.50;99.90;;;;;;5028412;28;20113;-88
2024/02/24 19:43:36;;;;;;;7.72;4.13;;;7.00;99.90;;;;;;5029528;28;20017;-89
2024/02/24 19:46:04;;;;;;;10.70;4.35;;;7.20;99.90;;;;;;5058078;22;20118;-81
2024/02/24 20:28:56;;;;;;;5.45;3.10;;;5.20;99.90;;;;;;5089744;22;20413;-80
2024/02/24 20:31:23;;;;;;;8.98;3.58;;;6.20;99.90;;;;;;5020165;28;20051;-84
2024/02/24 20:33:49;;;;;;;7.03;3.63;;;6.20;99.90;;;;;;5040382;28;20025;-84
2024/02/24 20:36:16;;;;;;;7.07;3.67;;;5.10;99.90;;;;;;5043948;28;20064;-82
2024/02/24 20:38:46;;;;;;;8.52;4.25;;;5.10;99.90;;;;;;5027568;28;20037;-82
2024/02/24 20:41:22;;;;;;;8.55;4.40;;;5.30;99.90;;;;;;5035923;28;20402;-85
2024/02/24 20:43:57;;;;;;;10.48;4.68;;;5.30;99.90;;;;;;5037410;28;20057;-84
2024/02/24 20:46:22;;;;;;;7.85;4.00;;;5.20;99.90;;;;;;5023035;28;20029;-83
2024/02/24 20:48:55;;;;;;;7.82;4.10;;;5.10;99.90;;;;;;5021235;28;20131;-85
2024/02/24 20:51:31;;;;;;;8.13;4.45;;;;;;;;;;5033046;28;20056;-85
2024/02/24 20:53:57;;;;;;;6.00;3.50;;;;;;;;;;5021616;28;20057;-85
2024/02/24 20:56:23;;;;;;;9.13;4.45;;;5.00;99.90;;;;;;5027400;28;20032;-81
2024/02/24 20:58:49;;;;;;;8.15;4.03;;;5.00;99.90;;;;;;5018843;28;20037;-83
2024/02/24 21:01:15;;;;;;;8.60;3.60;;;5.00;99.90;;;;;;5020425;28;20501;-84
2024/02/24 21:03:41;;;;;;;8.45;4.35;;;4.90;99.90;;;;;;5015835;28;20138;-84
2024/02/24 21:06:07;;;;;;;8.10;4.55;;;4.90;99.90;;;;;;5018080;28;20508;-86
2024/02/24 21:08:33;;;;;;;7.60;3.90;;;4.90;99.90;;;;;;5015497;28;20068;-84
2024/02/24 21:11:00;;;;;;;7.07;3.70;;;4.90;99.90;;;;;;5020777;28;20041;-83
2024/02/24 21:13:27;;;;;;;7.55;3.58;;;4.60;99.90;;;;;;5038240;28;20041;-81
2024/02/24 21:15:53;;;;;;;5.72;3.53;;;;;;;;;;5012582;28;20393;-81
2024/02/24 21:18:19;;;;;;;9.60;5.32;;;4.80;99.90;;;;;;5014421;28;20029;-83
2024/02/24 21:20:45;;;;;;;9.23;4.88;;;4.80;99.90;;;;;;5019154;28;20040;-82
2024/02/24 21:23:11;;;;;;;8.55;4.65;;;4.80;99.90;;;;;;5018341;28;20033;-82
2024/02/24 21:25:37;;;;;;;7.72;3.80;;;4.90;99.90;;;;;;5021452;28;20108;-84
2024/02/24 21:28:06;;;;;;;8.88;3.53;;;4.90;99.90;;;;;;5014356;28;20469;-82
2024/02/24 21:30:32;;;;;;;8.20;4.30;;;4.90;99.90;;;;;;5008119;28;20405;-80
2024/02/24 21:32:58;;;;;;;7.47;3.65;;;4.90;99.90;;;;;;5019758;28;20056;-86
2024/02/24 21:35:30;;;;;;;9.68;4.45;;;4.90;99.90;;;;;;5021181;28;20033;-84
2024/02/24 21:37:57;;;;;;;9.40;3.90;;;5.40;99.90;;;;;;5018196;28;20034;-85
2024/02/24 21:40:25;;;;;;;7.07;3.92;;;4.90;99.90;;;;;;5020611;28;20082;-83
2024/02/24 21:42:51;;;;;;;9.90;4.75;;;5.20;99.90;;;;;;5016670;28;20093;-85
2024/02/24 21:45:17;;;;;;;16.50;7.90;;;4.90;99.90;;;;;;5021292;28;20025;-83
2024/02/24 21:47:43;;;;;;;10.60;4.75;;;6.40;99.90;;;;;;5018811;28;20113;-85
2024/02/24 21:50:09;;;;;;;9.88;4.50;;;4.90;99.90;;;;;;5015228;28;20029;-84
2024/02/24 21:52:36;;;;;;;9.02;4.35;;;4.90;99.90;;;;;;5013414;28;20025;-81
2024/02/24 21:55:02;;;;;;;6.63;3.70;;;4.90;99.90;;;;;;5029776;28;20022;-84
2024/02/24 21:57:28;;;;;;;9.85;3.60;;;4.90;99.90;;;;;;5034809;28;20079;-82
2024/02/24 21:59:55;;;;;;;10.18;4.55;;;6.40;99.90;;;;;;5020604;28;20103;-85
2024/02/24 22:02:21;;;;;;;6.82;3.63;;;4.90;99.90;;;;;;5021380;28;20072;-84
2024/02/24 22:04:49;;;;;;;6.65;3.40;;;5.00;99.90;;;;;;5023491;28;20324;-84
2024/02/24 22:07:17;;;;;;;9.63;4.35;;;5.40;99.90;;;;;;5037859;28;20062;-87
2024/02/24 22:09:53;;;;;;;8.77;3.72;;;5.00;99.90;;;;;;5023109;28;20501;-84
2024/02/24 22:12:19;;;;;;;7.97;3.17;;;5.00;99.90;;;;;;5015095;28;20516;-85
2024/02/24 22:14:45;;;;;;;5.50;2.85;;;;;;;;;;5019194;28;20026;-83
2024/02/24 22:17:11;;;;;;;6.10;2.85;;;5.00;99.90;;;;;;5020215;28;20026;-84
2024/02/24 22:19:38;;;;;;;7.53;3.70;;;5.00;99.90;;;;;;5034628;28;20056;-85
2024/02/24 22:22:05;;;;;;;6.00;3.22;;;5.00;99.90;;;;;;5028834;28;20033;-85
2024/02/24 22:24:30;;;;;;;7.97;3.13;;;6.20;99.90;;;;;;5022260;28;20029;-85
2024/02/24 22:26:56;;;;;;;7.00;3.03;;;5.00;99.90;;;;;;5020038;28;20033;-85
2024/02/24 22:29:22;;;;;;;6.25;3.42;;;5.00;99.90;;;;;;5022220;28;20073;-84
2024/02/24 22:31:48;;;;;;;4.95;2.58;;;5.00;99.90;;;;;;5023604;28;20114;-83
2024/02/24 22:34:14;;;;;;;7.82;3.08;;;4.70;99.90;;;;;;5022700;28;20033;-86
2024/02/24 22:36:40;;;;;;;6.47;2.75;;;5.10;99.90;;;;;;5025528;28;20052;-85
2024/02/24 22:39:06;;;;;;;4.95;2.80;;;5.10;99.90;;;;;;5025669;28;20433;-85
2024/02/24 22:41:34;;;;;;;6.60;3.20;;;5.00;99.90;;;;;;5017373;28;20022;-84
2024/02/24 22:44:00;;;;;;;6.75;3.20;;;5.10;99.90;;;;;;5022372;28;20013;-81
2024/02/24 22:46:28;;;;;;;6.28;2.90;;;5.10;99.90;;;;;;5023378;28;20056;-83
2024/02/24 22:48:59;;;;;;;5.55;2.60;;;5.10;99.90;;;;;;5025067;28;20563;-82
2024/02/24 22:51:25;;;;;;;5.00;2.67;;;5.00;99.90;;;;;;5020458;28;20033;-82
2024/02/24 22:53:51;;;;;;;7.53;2.95;;;5.10;99.90;;;;;;5043200;28;20034;-85
2024/02/24 22:56:17;;;;;;;4.88;2.53;;;5.00;99.90;;;;;;5021555;28;20040;-84
2024/02/24 22:58:45;;;;;;;6.25;2.97;;;5.80;99.90;;;;;;5020434;28;20036;-86
2024/02/24 23:01:12;;;;;;;4.75;2.30;;;5.00;99.90;;;;;;5040930;28;20037;-85
2024/02/24 23:03:39;;;;;;;6.63;3.13;;;5.00;99.90;;;;;;5022106;28;20040;-84
2024/02/24 23:06:05;;;;;;;5.55;2.70;;;5.00;99.90;;;;;;5022996;28;20421;-85
2024/02/24 23:08:31;;;;;;;6.55;2.88;;;5.00;99.90;;;;;;5007433;28;20087;-83
2024/02/24 23:10:56;;;;;;;10.02;2.97;;;5.20;99.90;;;;;;5040195;28;20029;-81
2024/02/24 23:13:22;;;;;;;6.45;2.45;;;5.00;99.90;;;;;;5027806;28;20029;-80
2024/02/24 23:15:49;;;;;;;6.00;2.50;;;;;;;;;;5019490;28;20033;-81
2024/02/24 23:18:15;;;;;;;5.30;2.50;;;4.90;99.90;;;;;;5024073;28;20040;-80
2024/02/24 23:20:40;;;;;;;5.53;3.05;;;6.00;99.90;;;;;;5021395;28;20029;-81
2024/02/24 23:23:08;;;;;;;5.45;2.90;;;4.90;99.90;;;;;;5022696;28;20033;-82
2024/02/24 23:25:34;;;;;;;6.13;2.88;;;6.40;99.90;;;;;;5023263;28;20374;-84
2024/02/24 23:28:01;;;;;;;7.40;2.88;;;;;;;;;;5022391;28;20385;-83
2024/02/24 23:30:30;;;;;;;7.53;3.60;;;4.90;99.90;;;;;;5032377;28;20486;-83
2024/02/24 23:32:55;;;;;;;4.60;2.40;;;4.90;99.90;;;;;;5023140;28;20402;-83
2024/02/24 23:35:21;;;;;;;6.10;2.47;;;4.80;99.90;;;;;;5033591;28;20033;-86
2024/02/24 23:37:47;;;;;;;5.47;2.90;;;5.50;99.90;;;;;;5046973;28;20029;-85
2024/02/24 23:40:13;;;;;;;5.63;2.38;;;4.90;99.90;;;;;;5019267;28;20121;-85
2024/02/24 23:42:39;;;;;;;6.43;2.72;;;4.90;99.90;;;;;;5025319;28;20573;-85
2024/02/24 23:45:07;;;;;;;6.45;2.35;;;4.90;99.90;;;;;;5025255;28;20017;-82
2024/02/24 23:47:38;;;;;;;4.43;2.03;;;4.90;99.90;;;;;;5039557;28;20022;-82
2024/02/24 23:50:04;;;;;;;5.38;2.05;;;5.00;99.90;;;;;;5028955;28;20506;-84
2024/02/24 23:52:35;;;;;;;4.85;2.20;;;5.00;99.90;;;;;;5018042;28;20025;-84
2024/02/24 23:55:02;;;;;;;;;;;5.10;99.90;;;;;;5011504;28;20018;-84
2024/02/24 23:57:37;;;;;;;3.25;1.80;;;5.10;99.90;;;;;;5033137;28;19998;-82
